Airfield :
LOGIN :

Register | Disclaimer

   EN    FR    IT 

 










Legend :    VFR   Marginal VFR   IFR   Intensive IFR   Very Intensive IFR
Visi :
Ceiling :
>= 8 km
>= 3000ft
5 to 8 km
1000 to 3000 ft
1500m to 5 km
500 to 1000 ft
800 to 1500m
200 to 500 ft
< 800m
< 200 ft
Symbols :   Thunderstorms  Fog  Heavy snow  Heavy precipitations  Wind > 20 kt
SIGMETs :     Misc.  Thunderstorms  Icing  Turbulence  Mountain Waves  Volcanic Ashes






- Airport Elevation : 538 ft
- IATA code : TNF


LFPN - Toussus Le Noble

CURRENT METAR :
  • 180530Z AUTO 11004KT 070V130 CAVOK 20/19 Q1011 TEMPO 4000 SHRA SCT060CB BECMG 20010KT

EXPIRED METARs :
  • 180500Z AUTO 10003KT CAVOK 19/18 Q1011
  • 180430Z AUTO 08004KT CAVOK 18/18 Q1011
  • 180400Z AUTO 06004KT 030V090 9999 FEW029/// BKN058/// BKN068/// ///CB 18/18 Q1011
  • 180330Z AUTO 19005KT 3300 RA BR FEW026/// BKN035/// BKN045/// ///CB 19/18 Q1012
  • 180300Z AUTO 24007KT 7000 FEW009/// SCT062/// OVC072/// ///CB 19/18 Q1011

TAF TAF LFPN
Valid from the 18 at 06:00 until the 18 at 15:00 UTC


180500Z 1806/1815 VRB03KT CAVOK
TEMPO 1806/1808 FEW060CB
PROB30
TEMPO 1806/1809 4000 SHRA SCT060CB
BECMG 1806/1809 20010KT
TEMPO 1809/1815 22015G25KT -SHRA SCT060TCU FEW065CB
PROB30
TEMPO 1810/1815 4000 TSRA SCT060CB
ATIS : +33 1 39 56 54 70



MET'MAP, your aeronautical weather chart ! - Copyright ORBIFLY December 2007 - Disclaimer

ORBIFLY MET'MAP TEAM :

Programming & Development : Alexandra Zaïnal
Concept & original design : Baudouin d'Aumeries
Assistance for programming : Marc-Olivier Méhu
Technical & hardware support : Manuel Goepfert

Contact : metmap@orbifly.com




SOURCES & CREDITS :

   NOAA